Houghton, MI

10:04 PM EST on December 28, 2014 (GMT -0500)
Copper Harbor | Change Station
CLOSE
Current Station
Airport
Location: Copper Harbor,
Elevation: 623 ft
Nearby Weather Stations

Elev 623 ft 47.47 °N, 87.88 °W | Updated 13 minutes ago

Overcast
Overcast
18 °F
Feels Like 2 °F
N
20
Wind Variable Wind from North
Gusts 30 mph

Today
High -- | Low -- °F
--% Chance of Precip.
Yesterday
High -- | Low -- °F
Precip. -- in
8:40 AM 5:11 PM
First Quarter, 54% visible
Pressure 30.26 in
Visibility -9999.0 miles
Clouds
Windchill 2 °F
Dew Point 12 °F
Humidity 78%
Rainfall 0.01 in
Snow Depth Not available.
UV Not available.
Pollen .10 out of 12
Air Quality Not available.
Flu Activity Not available.
METAR KP59 290251Z AUTO 36017G26KT M08/M11 A3021 RMK AO1 PK WND 01027/0229 SLP247 T10781111 51014

More Conditions Fewer Conditions

Pressure 30.26 in
Visibility -9999.0 miles
Clouds
Windchill 2 °F
Dew Point 12 °F
Humidity 78%
Rainfall 0.01 in
Snow Depth Not available.
UV Not available.
Pollen .10 out of 12
Air Quality Not available.
Flu Activity Not available.
METAR KP59 290251Z AUTO 36017G26KT M08/M11 A3021 RMK AO1 PK WND 01027/0229 SLP247 T10781111 51014

More Conditions Fewer Conditions

10-Day Weather Forecast

Almanac

Astronomy

Dec. 28, 2014 Rise Set
Actual Time
Civil Twilight
Nautical Twilight
Astronomical Twilight
Moon
Length of Visible Light
Length of Day
Tomorrow will be .
, % of the Moon is Illuminated

Today's Extremes

State Highs State Lows

Community

WunderPhotos

Upload Photos

1,781,508 photos uploaded!

WunderBlogs® & News

Nearby

Air Quality

  Air Quality AQ Index Pollutant
Not available.

Snow Depth

Station Depth Elevation

Earthquake Activity

City Distance Mag. Time & Date
Minimum magnitude displayed is 2.5.

Coastal Water Temperatures

Place Temperature

Nearby Weather Stations